| time (UTC) | temp F | wind direction | speed MPH | gust MPH | rain 1hr in | rain 24hr in | rain mn in | humidity % | barometer mb |
| 20260904215716 | 104 | 265 | 7.0 | 9.0 | 0.00 | 0.00 | 0.00 | 17 | 1006.1 |
| 20260904214716 | 106 | 234 | 7.0 | 10.0 | 0.00 | 0.00 | 0.00 | 16 | 1006.3 |
| 20260904213717 | 104 | 241 | 7.0 | 9.0 | 0.00 | 0.00 | 0.00 | 15 | 1006.4 |
| 20260904212717 | 104 | 257 | 11.0 | 13.0 | 0.00 | 0.00 | 0.00 | 15 | 1006.5 |
| 20260904211717 | 104 | 244 | 10.0 | 13.0 | 0.00 | 0.00 | 0.00 | 14 | 1006.7 |
| 20260904210716 | 103 | 251 | 6.0 | 9.0 | 0.00 | 0.00 | 0.00 | 15 | 1006.8 |
| 20260904205717 | 104 | 232 | 8.0 | 10.0 | 0.00 | 0.00 | 0.00 | 14 | 1006.9 |
| 20260904204717 | 103 | 277 | 7.0 | 9.0 | 0.00 | 0.00 | 0.00 | 14 | 1006.9 |
| 20260904203716 | 103 | 246 | 3.0 | 5.0 | 0.00 | 0.00 | 0.00 | 14 | 1007.0 |
| 20260904202717 | 102 | 0.0 | 0.0 | 0.00 | 0.00 | 0.00 | 15 | 1007.2 | |
| 20260904202517 | 105 | 227 | 6.0 | 9.0 | 0.00 | 0.00 | 0.00 | 14 | 1007.2 |
| 20260904201516 | 104 | 229 | 2.0 | 4.0 | 0.00 | 0.00 | 0.00 | 15 | 1007.3 |
| 20260904200516 | 103 | 218 | 1.0 | 4.0 | 0.00 | 0.00 | 0.00 | 16 | 1007.4 |
| 20260904195517 | 104 | 215 | 4.0 | 8.0 | 0.00 | 0.00 | 0.00 | 17 | 1007.5 |
| 20260904194517 | 101 | 291 | 6.0 | 9.0 | 0.00 | 0.00 | 0.00 | 17 | 1007.6 |
| 20260904193917 | 101 | 273 | 2.0 | 5.0 | 0.00 | 0.00 | 0.00 | 19 | 1007.8 |
| 20260904192917 | 101 | 237 | 8.0 | 12.0 | 0.00 | 0.00 | 0.00 | 20 | 1007.8 |
| 20260904192217 | 100 | 268 | 1.0 | 6.0 | 0.00 | 0.00 | 0.00 | 23 | 1007.9 |
| 20260904191217 | 101 | 244 | 5.0 | 10.0 | 0.00 | 0.00 | 0.00 | 26 | 1008.0 |
| 20260904190216 | 102 | 253 | 6.0 | 11.0 | 0.00 | 0.00 | 0.00 | 25 | 1008.2 |
| 20260904185216 | 101 | 231 | 0.0 | 3.0 | 0.00 | 0.00 | 0.00 | 24 | 1008.3 |
| 20260904184217 | 101 | 221 | 8.0 | 11.0 | 0.00 | 0.00 | 0.00 | 26 | 1008.4 |
| 20260904183217 | 101 | 233 | 4.0 | 6.0 | 0.00 | 0.00 | 0.00 | 26 | 1008.5 |
| 20260904182216 | 102 | 184 | 5.0 | 9.0 | 0.00 | 0.00 | 0.00 | 26 | 1008.7 |
| 20260904181217 | 101 | 196 | 3.0 | 10.0 | 0.00 | 0.00 | 0.00 | 32 | 1008.7 |
| 20260904180217 | 99 | 206 | 7.0 | 9.0 | 0.00 | 0.00 | 0.00 | 35 | 1008.8 |
| 20260904180017 | 98 | 223 | 2.0 | 4.0 | 0.00 | 0.00 | 0.00 | 36 | 1008.8 |
| 20260904175017 | 99 | 187 | 2.0 | 5.0 | 0.00 | 0.00 | 0.00 | 36 | 1008.8 |
| 20260904174017 | 98 | 200 | 0.0 | 1.0 | 0.00 | 0.00 | 0.00 | 37 | 1008.9 |
| 20260904173017 | 97 | 221 | 4.0 | 6.0 | 0.00 | 0.00 | 0.00 | 38 | 1008.9 |
| 20260904172017 | 95 | 181 | 2.0 | 6.0 | 0.00 | 0.00 | 0.00 | 40 | 1009.0 |
| 20260904171016 | 96 | 214 | 2.0 | 7.0 | 0.00 | 0.00 | 0.00 | 38 | 1009.0 |
| 20260904170017 | 95 | 119 | 0.0 | 0.0 | 0.00 | 0.00 | 0.00 | 37 | 1009.0 |
| 20260904165017 | 94 | 134 | 0.0 | 0.0 | 0.00 | 0.00 | 0.00 | 39 | 1008.9 |
| 20260904164017 | 92 | 248 | 0.0 | 0.0 | 0.00 | 0.00 | 0.00 | 36 | 1008.9 |
| 20260904163017 | 93 | 293 | 0.0 | 0.0 | 0.00 | 0.00 | 0.00 | 29 | 1008.9 |
| 20260904162018 | 92 | 314 | 0.0 | 2.0 | 0.00 | 0.00 | 0.00 | 23 | 1008.8 |
| 20260904161016 | 91 | 343 | 2.0 | 5.0 | 0.00 | 0.00 | 0.00 | 20 | 1008.8 |
| 20260904160017 | 90 | 337 | 2.0 | 5.0 | 0.00 | 0.00 | 0.00 | 21 | 1008.9 |
| 20260904155017 | 89 | 356 | 1.0 | 4.0 | 0.00 | 0.00 | 0.00 | 22 | 1008.9 |
| 20260904154017 | 88 | 271 | 2.0 | 4.0 | 0.00 | 0.00 | 0.00 | 23 | 1008.9 |
| 20260904153017 | 88 | 330 | 0.0 | 0.0 | 0.00 | 0.00 | 0.00 | 23 | 1008.8 |
| 20260904152017 | 87 | 354 | 2.0 | 4.0 | 0.00 | 0.00 | 0.00 | 23 | 1008.8 |
| 20260904151017 | 86 | 335 | 0.0 | 1.0 | 0.00 | 0.00 | 0.00 | 24 | 1008.8 |
| 20260904150016 | 86 | 345 | 1.0 | 2.0 | 0.00 | 0.00 | 0.00 | 24 | 1008.8 |
| 20260904145017 | 86 | 16 | 0.0 | 1.0 | 0.00 | 0.00 | 0.00 | 24 | 1008.8 |
| 20260904144016 | 85 | 343 | 1.0 | 3.0 | 0.00 | 0.00 | 0.00 | 24 | 1008.6 |
| 20260904143017 | 84 | 351 | 0.0 | 1.0 | 0.00 | 0.00 | 0.00 | 25 | 1008.5 |
| 20260904142017 | 84 | 16 | 1.0 | 4.0 | 0.00 | 0.00 | 0.00 | 26 | 1008.5 |
| 20260904141017 | 84 | 356 | 2.0 | 6.0 | 0.00 | 0.00 | 0.00 | 26 | 1008.4 |
| 20260904140016 | 84 | 346 | 3.0 | 5.0 | 0.00 | 0.00 | 0.00 | 26 | 1008.2 |
| 20260904135017 | 84 | 352 | 3.0 | 6.0 | 0.00 | 0.00 | 0.00 | 26 | 1008.0 |
| 20260904134016 | 84 | 337 | 2.0 | 3.0 | 0.00 | 0.00 | 0.00 | 26 | 1007.9 |
| 20260904133017 | 85 | 9 | 0.0 | 0.0 | 0.00 | 0.00 | 0.00 | 26 | 1007.8 |
| 20260904132026 | 85 | 339 | 0.0 | 1.0 | 0.00 | 0.00 | 0.00 | 26 | 1007.5 |
| 20260904131017 | 85 | 356 | 2.0 | 4.0 | 0.00 | 0.00 | 0.00 | 26 | 1007.4 |
| 20260904130016 | 85 | 0.0 | 0.0 | 0.00 | 0.00 | 0.00 | 26 | 1007.3 | |
| 20260904125017 | 85 | 0.0 | 0.0 | 0.00 | 0.00 | 0.00 | 26 | 1007.2 | |
| 20260904124021 | 85 | 335 | 2.0 | 4.0 | 0.00 | 0.00 | 0.00 | 26 | 1007.1 |
| 20260904123017 | 85 | 0.0 | 0.0 | 0.00 | 0.00 | 0.00 | 28 | 1007.0 | |
| 20260904122517 | 85 | 0.0 | 0.0 | 0.00 | 0.00 | 0.00 | 28 | 1007.0 | |
| 20260904121516 | 84 | 0.0 | 0.0 | 0.00 | 0.00 | 0.00 | 28 | 1006.9 | |
| 20260904120517 | 84 | 313 | 4.0 | 5.0 | 0.00 | 0.00 | 0.00 | 28 | 1006.9 |
| 20260904115516 | 85 | 322 | 3.0 | 5.0 | 0.00 | 0.00 | 0.00 | 28 | 1006.9 |
| 20260904114516 | 84 | 343 | 5.0 | 6.0 | 0.00 | 0.00 | 0.00 | 28 | 1006.8 |
| 20260904113517 | 84 | 310 | 2.0 | 3.0 | 0.00 | 0.00 | 0.00 | 28 | 1006.7 |
| 20260904113417 | 84 | 332 | 4.0 | 6.0 | 0.00 | 0.00 | 0.00 | 28 | 1006.7 |
| 20260904113116 | 84 | 333 | 3.0 | 6.0 | 0.00 | 0.00 | 0.00 | 28 | 1006.7 |
| 20260904112117 | 84 | 332 | 1.0 | 3.0 | 0.00 | 0.00 | 0.00 | 27 | 1006.6 |
| 20260904111117 | 85 | 318 | 1.0 | 3.0 | 0.00 | 0.00 | 0.00 | 27 | 1006.5 |
| 20260904110116 | 85 | 333 | 5.0 | 6.0 | 0.00 | 0.00 | 0.00 | 26 | 1006.4 |
| 20260904105117 | 85 | 324 | 1.0 | 4.0 | 0.00 | 0.00 | 0.00 | 25 | 1006.3 |
| 20260904104117 | 85 | 327 | 4.0 | 6.0 | 0.00 | 0.00 | 0.00 | 24 | 1006.3 |
| 20260904103117 | 85 | 332 | 2.0 | 3.0 | 0.00 | 0.00 | 0.00 | 24 | 1006.2 |
| 20260904102116 | 85 | 324 | 4.0 | 5.0 | 0.00 | 0.00 | 0.00 | 24 | 1006.2 |
| 20260904101117 | 85 | 320 | 3.0 | 6.0 | 0.00 | 0.00 | 0.00 | 23 | 1006.0 |
| 20260904100117 | 86 | 330 | 1.0 | 4.0 | 0.00 | 0.00 | 0.00 | 25 | 1006.0 |
| 20260904095116 | 86 | 0.0 | 0.0 | 0.00 | 0.00 | 0.00 | 25 | 1005.9 | |
| 20260904094117 | 86 | 0.0 | 0.0 | 0.00 | 0.00 | 0.00 | 25 | 1006.0 | |
| 20260904093116 | 86 | 294 | 0.0 | 3.0 | 0.00 | 0.00 | 0.00 | 24 | 1005.9 |
| 20260904092116 | 86 | 0.0 | 0.0 | 0.00 | 0.00 | 0.00 | 28 | 1005.9 | |
| 20260904091117 | 86 | 0.0 | 0.0 | 0.00 | 0.00 | 0.00 | 29 | 1006.0 | |
| 20260904090416 | 86 | 0.0 | 0.0 | 0.00 | 0.00 | 0.00 | 34 | 1006.0 | |
| 20260904085416 | 86 | 0.0 | 0.0 | 0.00 | 0.00 | 0.00 | 37 | 1006.0 | |
| 20260904084417 | 86 | 266 | 0.0 | 0.0 | 0.00 | 0.00 | 0.00 | 46 | 1006.0 |
| 20260904083416 | 86 | 0.0 | 0.0 | 0.00 | 0.00 | 0.00 | 45 | 1006.2 | |
| 20260904082417 | 85 | 0.0 | 0.0 | 0.00 | 0.00 | 0.00 | 65 | 1006.2 | |
| 20260904081417 | 86 | 0.0 | 0.0 | 0.00 | 0.00 | 0.00 | 67 | 1006.2 | |
| 20260904080417 | 86 | 0.0 | 0.0 | 0.00 | 0.00 | 0.00 | 67 | 1006.2 | |
| 20260904075416 | 86 | 0.0 | 0.0 | 0.00 | 0.00 | 0.00 | 66 | 1006.2 | |
| 20260904074416 | 86 | 195 | 0.0 | 2.0 | 0.00 | 0.00 | 0.00 | 66 | 1006.3 |
| 20260904073417 | 86 | 181 | 3.0 | 5.0 | 0.00 | 0.00 | 0.00 | 65 | 1006.4 |
| 20260904072417 | 87 | 167 | 3.0 | 7.0 | 0.00 | 0.00 | 0.00 | 64 | 1006.4 |
| 20260904071416 | 86 | 177 | 1.0 | 6.0 | 0.00 | 0.00 | 0.00 | 55 | 1006.4 |
| 20260904070417 | 87 | 0.0 | 0.0 | 0.00 | 0.00 | 0.00 | 57 | 1006.5 | |
| 20260904065417 | 87 | 0.0 | 0.0 | 0.00 | 0.00 | 0.00 | 58 | 1006.5 | |
| 20260904064417 | 87 | 187 | 2.0 | 5.0 | 0.00 | 0.00 | 0.00 | 57 | 1006.4 |
| 20260904063416 | 88 | 167 | 3.0 | 6.0 | 0.00 | 0.00 | 0.00 | 54 | 1006.4 |
| 20260904062417 | 88 | 156 | 1.0 | 5.0 | 0.00 | 0.00 | 0.00 | 52 | 1006.5 |
| 20260904061417 | 89 | 177 | 6.0 | 8.0 | 0.00 | 0.00 | 0.00 | 51 | 1006.4 |
| 20260904060417 | 89 | 0.0 | 0.0 | 0.00 | 0.00 | 0.00 | 37 | 1006.5 | |
| 20260904055418 | 90 | 0.0 | 0.0 | 0.00 | 0.00 | 0.00 | 44 | 1006.5 | |
| 20260904054416 | 91 | 0.0 | 0.0 | 0.00 | 0.00 | 0.00 | 38 | 1006.4 | |
| 20260904053417 | 91 | 0.0 | 0.0 | 0.00 | 0.00 | 0.00 | 25 | 1006.4 | |
| 20260904053317 | 91 | 278 | 4.0 | 5.0 | 0.00 | 0.00 | 0.00 | 25 | 1006.5 |
| 20260904052316 | 89 | 0.0 | 0.0 | 0.00 | 0.00 | 0.00 | 50 | 1006.5 | |
| 20260904051317 | 90 | 240 | 1.0 | 5.0 | 0.00 | 0.00 | 0.00 | 49 | 1006.3 |
| 20260904050317 | 90 | 0.0 | 0.0 | 0.00 | 0.00 | 0.00 | 47 | 1006.1 | |
| 20260904045516 | 91 | 223 | 2.0 | 3.0 | 0.00 | 0.00 | 0.00 | 46 | 1006.1 |
| 20260904044517 | 91 | 222 | 4.0 | 6.0 | 0.00 | 0.00 | 0.00 | 45 | 1006.0 |
| 20260904043517 | 91 | 227 | 3.0 | 3.0 | 0.00 | 0.00 | 0.00 | 41 | 1006.0 |
| 20260904042717 | 91 | 221 | 1.0 | 4.0 | 0.00 | 0.00 | 0.00 | 38 | 1005.9 |
| 20260904041717 | 91 | 218 | 1.0 | 4.0 | 0.00 | 0.00 | 0.00 | 28 | 1005.7 |
| 20260904040717 | 92 | 221 | 3.0 | 5.0 | 0.00 | 0.00 | 0.00 | 22 | 1005.6 |
| 20260904035716 | 92 | 215 | 3.0 | 5.0 | 0.00 | 0.00 | 0.00 | 14 | 1005.4 |
| 20260904034717 | 93 | 229 | 0.0 | 1.0 | 0.00 | 0.00 | 0.00 | 12 | 1005.4 |
| 20260904033716 | 93 | 209 | 0.0 | 2.0 | 0.00 | 0.00 | 0.00 | 12 | 1005.3 |
| 20260904032717 | 93 | 210 | 1.0 | 3.0 | 0.00 | 0.00 | 0.00 | 12 | 1005.1 |
| 20260904031717 | 94 | 209 | 0.0 | 1.0 | 0.00 | 0.00 | 0.00 | 13 | 1004.9 |
| 20260904030717 | 93 | 0.0 | 0.0 | 0.00 | 0.00 | 0.00 | 13 | 1004.7 | |
| 20260904025717 | 95 | 0.0 | 0.0 | 0.00 | 0.00 | 0.00 | 12 | 1004.5 | |
| 20260904024716 | 95 | 0.0 | 0.0 | 0.00 | 0.00 | 0.00 | 12 | 1004.5 | |
| 20260904023717 | 96 | 0.0 | 0.0 | 0.00 | 0.00 | 0.00 | 12 | 1004.3 | |
| 20260904022716 | 97 | 0.0 | 0.0 | 0.00 | 0.00 | 0.00 | 11 | 1004.2 | |
| 20260904021716 | 98 | 0.0 | 0.0 | 0.00 | 0.00 | 0.00 | 10 | 1004.1 | |
| 20260904020717 | 99 | 0.0 | 0.0 | 0.00 | 0.00 | 0.00 | 10 | 1004.1 | |
| 20260904015716 | 99 | 0.0 | 0.0 | 0.00 | 0.00 | 0.00 | 10 | 1004.0 | |
| 20260904014717 | 100 | 305 | 2.0 | 4.0 | 0.00 | 0.00 | 0.00 | 10 | 1004.0 |
| 20260904013716 | 100 | 296 | 4.0 | 7.0 | 0.00 | 0.00 | 0.00 | 10 | 1004.0 |
| 20260904012717 | 101 | 310 | 5.0 | 8.0 | 0.00 | 0.00 | 0.00 | 9 | 1004.0 |
| 20260904011716 | 102 | 277 | 5.0 | 7.0 | 0.00 | 0.00 | 0.00 | 9 | 1004.0 |
| 20260904010716 | 103 | 292 | 3.0 | 5.0 | 0.00 | 0.00 | 0.00 | 10 | 1003.9 |
| 20260904005717 | 103 | 286 | 1.0 | 3.0 | 0.00 | 0.00 | 0.00 | 11 | 1003.9 |
| 20260904005316 | 104 | 276 | 6.0 | 7.0 | 0.00 | 0.00 | 0.00 | 11 | 1003.9 |
| 20260904004317 | 104 | 296 | 7.0 | 8.0 | 0.00 | 0.00 | 0.00 | 10 | 1003.9 |
| 20260904003316 | 105 | 257 | 3.0 | 7.0 | 0.00 | 0.00 | 0.00 | 10 | 1003.9 |
| 20260904002317 | 104 | 253 | 7.0 | 8.0 | 0.00 | 0.00 | 0.00 | 10 | 1004.0 |
| 20260904001317 | 105 | 246 | 7.0 | 8.0 | 0.00 | 0.00 | 0.00 | 11 | 1004.0 |
| 20260904000417 | 104 | 278 | 5.0 | 7.0 | 0.00 | 0.00 | 0.00 | 9 | 1004.1 |
| 20260903235416 | 104 | 287 | 7.0 | 10.0 | 0.00 | 0.00 | 0.00 | 9 | 1004.2 |
| 20260903234417 | 105 | 255 | 7.0 | 11.0 | 0.00 | 0.00 | 0.00 | 10 | 1004.3 |
| 20260903233417 | 105 | 241 | 6.0 | 8.0 | 0.00 | 0.00 | 0.00 | 12 | 1004.3 |
| 20260903232417 | 104 | 255 | 9.0 | 12.0 | 0.00 | 0.00 | 0.00 | 14 | 1004.4 |
| 20260903231416 | 104 | 246 | 9.0 | 14.0 | 0.00 | 0.00 | 0.00 | 14 | 1004.5 |
| 20260903230417 | 104 | 256 | 7.0 | 10.0 | 0.00 | 0.00 | 0.00 | 15 | 1004.6 |
| 20260903225416 | 104 | 252 | 9.0 | 11.0 | 0.00 | 0.00 | 0.00 | 14 | 1004.7 |
| 20260903224416 | 104 | 244 | 4.0 | 9.0 | 0.00 | 0.00 | 0.00 | 15 | 1004.8 |
| 20260903223417 | 105 | 237 | 6.0 | 9.0 | 0.00 | 0.00 | 0.00 | 15 | 1005.0 |
| 20260903222817 | 105 | 266 | 7.0 | 10.0 | 0.00 | 0.00 | 0.00 | 15 | 1005.0 |
| 20260903221817 | 105 | 262 | 7.0 | 12.0 | 0.00 | 0.00 | 0.00 | 15 | 1005.2 |
| 20260903220817 | 104 | 251 | 6.0 | 10.0 | 0.00 | 0.00 | 0.00 | 15 | 1005.3 |